VIE weather

Vienna International Airport
Vienna, Vienna, Austria

Public forecast

Using degrees Celsius for public forecast. Weather courtesy of forecast.io.

METAR (pilot weather report)

Retrieved 2018/08/20 03:20 UTC (18 minutes ago):

LOWW 200320Z 19004KT CAVOK 18/13 Q1017 NOSIG

TAF (pilot weather forecast)

Retrieved 2018/08/20 03:21 UTC (17 minutes ago):

TAF LOWW 200215Z 2003/2109 VRB02KT CAVOK TX34/2014Z TN19/2003Z TEMPO 2012/2017 9999 FEW070TCU BECMG 2017/2020 29007KT BECMG 2100/2103 33010KT